BLY14EF CYHM-EINN
Flight info
| Callsign | BLY14EF |
|---|---|
| Flight time | 5h 57m |
| Altitude | 37000 |
| Route | MUNR2 SIKBO Q905 IPTOS DCT AGLUK DCT CEFOU DCT IBERG/M079F380 NATC VENER/N0457F370 DCT UNBEG UNBEG2E |
| Aircraft | A319/M-SDE3FGHIRWY/LB1 |
Departure
| Time | 2026-05-08 12:22 |
|---|---|
| Airport | John C. Munro Hamilton International Airport (CYHM) |
Arrival
| Time | 2026-05-08 18:19 |
|---|---|
| Airport | Shannon Airport (EINN) |
| Time | Latitude | Longitude | Altitude | Speed | Heading |
|---|---|---|---|---|---|
| 2026-05-08 11:48 | 43.16371 | -79.92533 | 778 ft | 0 kts | 197° |
| 2026-05-08 12:13 | 43.16386 | -79.92527 | 758 ft | 4 kts | 194° |
| 2026-05-08 12:14 | 43.16412 | -79.92519 | 777 ft | 4 kts | 193° |
| 2026-05-08 12:14 | 43.16437 | -79.92508 | 778 ft | 4 kts | 214° |
| 2026-05-08 12:14 | 43.16454 | -79.92488 | 779 ft | 4 kts | 228° |
| 2026-05-08 12:14 | 43.16470 | -79.92458 | 780 ft | 4 kts | 248° |
| 2026-05-08 12:15 | 43.16475 | -79.92424 | 780 ft | 4 kts | 277° |
| 2026-05-08 12:15 | 43.16473 | -79.92410 | 780 ft | 0 kts | 287° |
| 2026-05-08 12:17 | 43.16476 | -79.92417 | 780 ft | 4 kts | 294° |
| 2026-05-08 12:17 | 43.16540 | -79.92452 | 782 ft | 12 kts | 330° |
| 2026-05-08 12:17 | 43.16607 | -79.92504 | 783 ft | 11 kts | 330° |
| 2026-05-08 12:18 | 43.16678 | -79.92559 | 782 ft | 12 kts | 330° |
| 2026-05-08 12:18 | 43.16756 | -79.92621 | 782 ft | 13 kts | 329° |
| 2026-05-08 12:18 | 43.16843 | -79.92690 | 780 ft | 16 kts | 330° |
| 2026-05-08 12:18 | 43.16942 | -79.92767 | 779 ft | 17 kts | 330° |
| 2026-05-08 12:19 | 43.17048 | -79.92844 | 778 ft | 17 kts | 349° |
| 2026-05-08 12:19 | 43.17140 | -79.92744 | 778 ft | 17 kts | 49° |
| 2026-05-08 12:19 | 43.17215 | -79.92627 | 782 ft | 15 kts | 49° |
| 2026-05-08 12:19 | 43.17286 | -79.92516 | 782 ft | 16 kts | 49° |
| 2026-05-08 12:20 | 43.17358 | -79.92404 | 783 ft | 15 kts | 49° |
| 2026-05-08 12:20 | 43.17372 | -79.92268 | 783 ft | 16 kts | 107° |
| 2026-05-08 12:20 | 43.17336 | -79.92112 | 779 ft | 19 kts | 107° |
| 2026-05-08 12:20 | 43.17295 | -79.91935 | 778 ft | 20 kts | 107° |
| 2026-05-08 12:21 | 43.17242 | -79.91795 | 780 ft | 11 kts | 128° |
| 2026-05-08 12:21 | 43.17252 | -79.91766 | 780 ft | 4 kts | 336° |
| 2026-05-08 12:21 | 43.17264 | -79.91800 | 780 ft | 4 kts | 288° |
| 2026-05-08 12:21 | 43.17274 | -79.91842 | 780 ft | 5 kts | 288° |
| 2026-05-08 12:22 | 43.17304 | -79.91974 | 778 ft | 41 kts | 287° |
| 2026-05-08 12:22 | 43.17467 | -79.92692 | 786 ft | 114 kts | 287° |
| 2026-05-08 12:22 | 43.17756 | -79.93982 | 877 ft | 158 kts | 287° |
| 2026-05-08 12:22 | 43.18026 | -79.95392 | 1656 ft | 149 kts | 275° |
| 2026-05-08 12:23 | 43.17886 | -79.96799 | 2304 ft | 152 kts | 250° |
| 2026-05-08 12:23 | 43.17512 | -79.98202 | 2831 ft | 166 kts | 251° |
| 2026-05-08 12:23 | 43.17096 | -79.99788 | 3207 ft | 188 kts | 252° |
| 2026-05-08 12:23 | 43.16630 | -80.01582 | 3550 ft | 213 kts | 252° |
| 2026-05-08 12:24 | 43.16207 | -80.03635 | 3976 ft | 237 kts | 268° |
| 2026-05-08 12:24 | 43.16674 | -80.05825 | 4664 ft | 250 kts | 306° |
| 2026-05-08 12:24 | 43.18098 | -80.07190 | 5645 ft | 259 kts | 341° |
| 2026-05-08 12:25 | 43.23599 | -80.01249 | 9402 ft | 298 kts | 55° |
| 2026-05-08 12:25 | 43.24687 | -79.98795 | 10247 ft | 306 kts | 54° |
| 2026-05-08 12:26 | 43.25840 | -79.96210 | 10602 ft | 329 kts | 54° |
| 2026-05-08 12:26 | 43.27207 | -79.93568 | 10902 ft | 350 kts | 47° |
| 2026-05-08 12:26 | 43.28838 | -79.90949 | 11186 ft | 370 kts | 43° |
| 2026-05-08 12:26 | 43.30612 | -79.88343 | 11826 ft | 377 kts | 41° |
| 2026-05-08 12:27 | 43.32437 | -79.85725 | 12600 ft | 382 kts | 41° |
| 2026-05-08 12:27 | 43.34275 | -79.83062 | 13366 ft | 386 kts | 41° |
| 2026-05-08 12:27 | 43.36111 | -79.80332 | 14104 ft | 391 kts | 41° |
| 2026-05-08 12:27 | 43.37952 | -79.77537 | 14803 ft | 397 kts | 42° |
| 2026-05-08 12:28 | 43.39798 | -79.74694 | 15503 ft | 401 kts | 42° |
| 2026-05-08 12:28 | 43.41681 | -79.71773 | 16188 ft | 405 kts | 41° |
| 2026-05-08 12:28 | 43.43561 | -79.68854 | 16858 ft | 409 kts | 41° |
| 2026-05-08 12:28 | 43.45455 | -79.65912 | 17512 ft | 413 kts | 40° |
| 2026-05-08 12:29 | 43.47369 | -79.62940 | 18164 ft | 417 kts | 40° |
| 2026-05-08 12:29 | 43.49302 | -79.59946 | 18718 ft | 420 kts | 40° |
| 2026-05-08 12:29 | 43.51250 | -79.56928 | 19252 ft | 423 kts | 40° |
| 2026-05-08 12:29 | 43.53237 | -79.53847 | 19794 ft | 426 kts | 39° |
| 2026-05-08 12:30 | 43.55213 | -79.50774 | 20364 ft | 429 kts | 40° |
| 2026-05-08 12:30 | 43.57188 | -79.47692 | 20949 ft | 430 kts | 40° |
| 2026-05-08 12:30 | 43.59177 | -79.44590 | 21472 ft | 432 kts | 39° |
| 2026-05-08 12:30 | 43.61202 | -79.41429 | 22012 ft | 436 kts | 39° |
| 2026-05-08 12:31 | 43.63214 | -79.38286 | 22474 ft | 439 kts | 39° |
| 2026-05-08 12:31 | 43.65172 | -79.34995 | 22934 ft | 450 kts | 46° |
| 2026-05-08 12:31 | 43.66799 | -79.31227 | 23392 ft | 463 kts | 53° |
| 2026-05-08 12:31 | 43.68305 | -79.27283 | 23793 ft | 466 kts | 53° |
| 2026-05-08 12:32 | 43.69818 | -79.23309 | 24153 ft | 469 kts | 53° |
| 2026-05-08 12:32 | 43.71338 | -79.19309 | 24527 ft | 472 kts | 53° |
| 2026-05-08 12:32 | 43.72866 | -79.15286 | 24943 ft | 473 kts | 53° |
| 2026-05-08 12:32 | 43.74402 | -79.11252 | 25326 ft | 475 kts | 53° |
| 2026-05-08 12:33 | 43.75948 | -79.07191 | 25674 ft | 478 kts | 54° |
| 2026-05-08 12:33 | 43.77518 | -79.03055 | 26024 ft | 482 kts | 54° |
| 2026-05-08 12:33 | 43.79061 | -78.98988 | 26322 ft | 485 kts | 54° |
| 2026-05-08 12:33 | 43.80657 | -78.94784 | 26644 ft | 488 kts | 54° |
| 2026-05-08 12:34 | 43.82237 | -78.90616 | 26954 ft | 491 kts | 54° |
| 2026-05-08 12:34 | 43.83824 | -78.86410 | 27261 ft | 494 kts | 54° |
| 2026-05-08 12:34 | 43.85416 | -78.82183 | 27564 ft | 496 kts | 54° |
| 2026-05-08 12:34 | 43.87017 | -78.77927 | 27895 ft | 499 kts | 55° |
| 2026-05-08 12:35 | 43.88614 | -78.73657 | 28282 ft | 499 kts | 55° |
| 2026-05-08 12:35 | 43.90204 | -78.69390 | 28772 ft | 497 kts | 55° |
| 2026-05-08 12:35 | 43.91791 | -78.65130 | 29239 ft | 497 kts | 56° |
| 2026-05-08 12:35 | 43.93378 | -78.60875 | 29659 ft | 497 kts | 56° |
| 2026-05-08 12:36 | 43.94967 | -78.56619 | 30068 ft | 497 kts | 56° |
| 2026-05-08 12:36 | 43.96555 | -78.52365 | 30415 ft | 497 kts | 56° |
| 2026-05-08 12:36 | 43.98145 | -78.48100 | 30749 ft | 497 kts | 56° |
| 2026-05-08 12:36 | 43.99721 | -78.43860 | 31075 ft | 498 kts | 56° |
| 2026-05-08 12:37 | 44.01315 | -78.39558 | 31406 ft | 498 kts | 56° |
| 2026-05-08 12:37 | 44.02905 | -78.35286 | 31768 ft | 497 kts | 57° |
| 2026-05-08 12:37 | 44.04513 | -78.31040 | 32145 ft | 496 kts | 56° |
| 2026-05-08 12:37 | 44.06136 | -78.26810 | 32490 ft | 496 kts | 56° |
| 2026-05-08 12:38 | 44.07770 | -78.22582 | 32823 ft | 496 kts | 56° |
| 2026-05-08 12:38 | 44.09401 | -78.18358 | 33155 ft | 496 kts | 56° |
| 2026-05-08 12:38 | 44.11029 | -78.14115 | 33487 ft | 497 kts | 57° |
| 2026-05-08 12:38 | 44.12642 | -78.09870 | 33818 ft | 497 kts | 57° |
| 2026-05-08 12:39 | 44.14254 | -78.05605 | 34105 ft | 498 kts | 57° |
| 2026-05-08 12:39 | 44.15341 | -78.02723 | 34286 ft | 498 kts | 57° |
| 2026-05-08 12:39 | 44.16950 | -77.98449 | 34561 ft | 498 kts | 57° |
| 2026-05-08 12:39 | 44.18562 | -77.94179 | 34821 ft | 498 kts | 57° |
| 2026-05-08 12:40 | 44.20185 | -77.89905 | 35054 ft | 499 kts | 57° |
| 2026-05-08 12:40 | 44.21810 | -77.85629 | 35293 ft | 500 kts | 57° |
| 2026-05-08 12:40 | 44.23440 | -77.81348 | 35536 ft | 500 kts | 57° |
| 2026-05-08 12:40 | 44.25067 | -77.77066 | 35782 ft | 500 kts | 57° |
| 2026-05-08 12:41 | 44.26693 | -77.72771 | 36019 ft | 500 kts | 58° |
| 2026-05-08 12:41 | 44.28311 | -77.68473 | 36250 ft | 501 kts | 58° |
| 2026-05-08 12:41 | 44.29927 | -77.64164 | 36469 ft | 501 kts | 58° |
| 2026-05-08 12:41 | 44.31541 | -77.59852 | 36687 ft | 501 kts | 58° |
| 2026-05-08 12:42 | 44.33180 | -77.55564 | 36902 ft | 501 kts | 57° |
| 2026-05-08 12:42 | 44.34958 | -77.51310 | 36953 ft | 502 kts | 54° |
| 2026-05-08 12:42 | 44.38772 | -77.43049 | 36951 ft | 508 kts | 52° |
| 2026-05-08 12:43 | 44.42670 | -77.34794 | 36950 ft | 509 kts | 53° |
| 2026-05-08 12:43 | 44.46444 | -77.26473 | 36950 ft | 510 kts | 54° |
| 2026-05-08 12:44 | 44.50170 | -77.18038 | 36939 ft | 509 kts | 54° |
| 2026-05-08 12:44 | 44.53891 | -77.09611 | 36931 ft | 508 kts | 54° |
| 2026-05-08 12:45 | 44.57632 | -77.01192 | 36929 ft | 509 kts | 54° |
| 2026-05-08 12:45 | 44.61374 | -76.92751 | 36933 ft | 509 kts | 54° |
| 2026-05-08 12:46 | 44.65052 | -76.84422 | 36963 ft | 510 kts | 54° |
| 2026-05-08 12:46 | 44.68802 | -76.75900 | 36961 ft | 509 kts | 54° |
| 2026-05-08 12:47 | 44.72522 | -76.67429 | 36953 ft | 509 kts | 54° |
| 2026-05-08 12:47 | 44.76234 | -76.58942 | 36947 ft | 509 kts | 55° |
| 2026-05-08 12:48 | 44.79944 | -76.50437 | 36962 ft | 509 kts | 55° |
| 2026-05-08 12:48 | 44.83652 | -76.41932 | 36955 ft | 509 kts | 55° |
| 2026-05-08 12:49 | 44.87345 | -76.33425 | 36945 ft | 509 kts | 55° |
| 2026-05-08 12:49 | 44.91049 | -76.24847 | 36940 ft | 509 kts | 55° |
| 2026-05-08 12:50 | 44.94792 | -76.16384 | 36951 ft | 508 kts | 53° |
| 2026-05-08 12:50 | 44.98742 | -76.08130 | 36941 ft | 507 kts | 52° |
| 2026-05-08 12:51 | 45.04708 | -75.95777 | 36923 ft | 507 kts | 53° |
| 2026-05-08 12:52 | 45.08611 | -75.87461 | 36922 ft | 508 kts | 53° |
| 2026-05-08 12:52 | 45.14435 | -75.74925 | 36939 ft | 508 kts | 53° |
| 2026-05-08 12:53 | 45.18320 | -75.66580 | 36934 ft | 507 kts | 53° |
| 2026-05-08 12:53 | 45.22211 | -75.58233 | 36925 ft | 507 kts | 53° |
| 2026-05-08 12:54 | 45.26095 | -75.49863 | 36938 ft | 508 kts | 54° |
| 2026-05-08 12:54 | 45.29967 | -75.41477 | 36930 ft | 508 kts | 54° |
| 2026-05-08 12:55 | 45.33987 | -75.32753 | 36923 ft | 508 kts | 54° |
| 2026-05-08 12:55 | 45.37877 | -75.24288 | 36912 ft | 508 kts | 54° |
| 2026-05-08 12:56 | 45.41729 | -75.15862 | 36917 ft | 508 kts | 54° |
| 2026-05-08 12:56 | 45.45570 | -75.07436 | 36905 ft | 508 kts | 54° |
| 2026-05-08 12:57 | 45.49413 | -74.98996 | 36900 ft | 508 kts | 54° |
| 2026-05-08 12:57 | 45.53258 | -74.90538 | 36895 ft | 508 kts | 54° |
| 2026-05-08 12:58 | 45.57087 | -74.82062 | 36910 ft | 508 kts | 55° |
| 2026-05-08 12:58 | 45.60912 | -74.73579 | 36904 ft | 508 kts | 55° |
| 2026-05-08 12:59 | 45.64730 | -74.65090 | 36899 ft | 508 kts | 55° |
| 2026-05-08 12:59 | 45.68549 | -74.56576 | 36891 ft | 508 kts | 55° |
| 2026-05-08 13:00 | 45.72375 | -74.48020 | 36884 ft | 508 kts | 55° |
| 2026-05-08 13:00 | 45.75532 | -74.40935 | 36881 ft | 508 kts | 55° |
| 2026-05-08 13:01 | 45.79325 | -74.32388 | 36882 ft | 508 kts | 55° |
| 2026-05-08 13:01 | 45.83112 | -74.23834 | 36881 ft | 508 kts | 55° |
| 2026-05-08 13:02 | 45.86928 | -74.15203 | 36891 ft | 509 kts | 55° |
| 2026-05-08 13:02 | 45.90717 | -74.06620 | 36888 ft | 509 kts | 55° |
| 2026-05-08 13:03 | 45.94492 | -73.98022 | 36880 ft | 509 kts | 56° |
| 2026-05-08 13:03 | 45.98260 | -73.89417 | 36878 ft | 508 kts | 56° |
| 2026-05-08 13:04 | 46.02022 | -73.80813 | 36875 ft | 508 kts | 56° |
| 2026-05-08 13:04 | 46.05775 | -73.72191 | 36885 ft | 508 kts | 56° |
| 2026-05-08 13:05 | 46.09511 | -73.63564 | 36880 ft | 508 kts | 56° |
| 2026-05-08 13:05 | 46.13237 | -73.54923 | 36874 ft | 507 kts | 56° |
| 2026-05-08 13:06 | 46.16965 | -73.46283 | 36872 ft | 507 kts | 56° |
| 2026-05-08 13:06 | 46.20682 | -73.37620 | 36884 ft | 508 kts | 57° |
| 2026-05-08 13:07 | 46.24209 | -73.28790 | 36875 ft | 508 kts | 60° |
| 2026-05-08 13:07 | 46.27538 | -73.19772 | 36873 ft | 508 kts | 60° |
| 2026-05-08 13:08 | 46.30841 | -73.10747 | 36871 ft | 508 kts | 60° |
| 2026-05-08 13:08 | 46.34217 | -73.01682 | 36878 ft | 508 kts | 60° |
| 2026-05-08 13:09 | 46.37592 | -72.92702 | 36879 ft | 508 kts | 60° |
| 2026-05-08 13:09 | 46.40963 | -72.83714 | 36865 ft | 508 kts | 60° |
| 2026-05-08 13:10 | 46.44316 | -72.74696 | 36861 ft | 508 kts | 60° |
| 2026-05-08 13:10 | 46.47644 | -72.65665 | 36874 ft | 508 kts | 60° |
| 2026-05-08 13:11 | 46.50967 | -72.56630 | 36867 ft | 507 kts | 61° |
| 2026-05-08 13:11 | 46.54288 | -72.47595 | 36862 ft | 507 kts | 60° |
| 2026-05-08 13:12 | 46.57608 | -72.38547 | 36863 ft | 507 kts | 61° |
| 2026-05-08 13:12 | 46.60929 | -72.29432 | 36850 ft | 507 kts | 61° |
| 2026-05-08 13:13 | 46.64225 | -72.20361 | 36865 ft | 507 kts | 61° |
| 2026-05-08 13:13 | 46.67515 | -72.11292 | 36855 ft | 506 kts | 61° |
| 2026-05-08 13:14 | 46.70789 | -72.02225 | 36855 ft | 506 kts | 61° |
| 2026-05-08 13:14 | 46.74058 | -71.93145 | 36852 ft | 506 kts | 62° |
| 2026-05-08 13:15 | 46.77323 | -71.84064 | 36854 ft | 505 kts | 62° |
| 2026-05-08 13:15 | 46.80570 | -71.74969 | 36847 ft | 505 kts | 62° |
| 2026-05-08 13:16 | 46.83803 | -71.65862 | 36838 ft | 505 kts | 62° |
| 2026-05-08 13:16 | 46.87032 | -71.56763 | 36832 ft | 505 kts | 62° |
| 2026-05-08 13:17 | 46.90262 | -71.47651 | 36827 ft | 504 kts | 62° |
| 2026-05-08 13:17 | 46.93480 | -71.38541 | 36831 ft | 504 kts | 62° |
| 2026-05-08 13:18 | 46.96693 | -71.29418 | 36824 ft | 504 kts | 62° |
| 2026-05-08 13:18 | 46.99910 | -71.20228 | 36810 ft | 504 kts | 63° |
| 2026-05-08 13:19 | 47.03102 | -71.11089 | 36802 ft | 504 kts | 63° |
| 2026-05-08 13:19 | 47.06283 | -71.01934 | 36818 ft | 504 kts | 63° |
| 2026-05-08 13:20 | 47.09451 | -70.92769 | 36816 ft | 504 kts | 63° |
| 2026-05-08 13:20 | 47.12616 | -70.83596 | 36806 ft | 504 kts | 63° |
| 2026-05-08 13:21 | 47.15774 | -70.74421 | 36806 ft | 504 kts | 63° |
| 2026-05-08 13:21 | 47.18934 | -70.65226 | 36783 ft | 504 kts | 63° |
| 2026-05-08 13:22 | 47.22084 | -70.56024 | 36783 ft | 504 kts | 63° |
| 2026-05-08 13:22 | 47.25239 | -70.46737 | 36785 ft | 504 kts | 63° |
| 2026-05-08 13:23 | 47.28374 | -70.37497 | 36794 ft | 505 kts | 63° |
| 2026-05-08 13:23 | 47.31509 | -70.28247 | 36795 ft | 505 kts | 64° |
| 2026-05-08 13:24 | 47.34634 | -70.18974 | 36810 ft | 505 kts | 64° |
| 2026-05-08 13:24 | 47.37750 | -70.09695 | 36806 ft | 505 kts | 64° |
| 2026-05-08 13:25 | 47.40855 | -70.00391 | 36789 ft | 505 kts | 64° |
| 2026-05-08 13:25 | 47.43949 | -69.91075 | 36791 ft | 506 kts | 64° |
| 2026-05-08 13:26 | 47.47050 | -69.81735 | 36803 ft | 506 kts | 64° |
| 2026-05-08 13:26 | 47.50150 | -69.72386 | 36807 ft | 506 kts | 64° |
| 2026-05-08 13:27 | 47.53236 | -69.63033 | 36805 ft | 506 kts | 65° |
| 2026-05-08 13:27 | 47.56344 | -69.53600 | 36804 ft | 506 kts | 65° |
| 2026-05-08 13:28 | 47.59415 | -69.44220 | 36785 ft | 506 kts | 65° |
| 2026-05-08 13:28 | 47.62475 | -69.34815 | 36790 ft | 507 kts | 65° |
| 2026-05-08 13:29 | 47.65078 | -69.26807 | 36819 ft | 513 kts | 65° |
| 2026-05-08 13:29 | 47.68166 | -69.17275 | 36811 ft | 512 kts | 65° |
| 2026-05-08 13:30 | 47.71231 | -69.07762 | 36822 ft | 510 kts | 65° |
| 2026-05-08 13:30 | 47.73982 | -68.98102 | 36811 ft | 506 kts | 76° |
| 2026-05-08 13:31 | 47.75544 | -68.87934 | 36800 ft | 505 kts | 79° |
| 2026-05-08 13:31 | 47.77069 | -68.77758 | 36800 ft | 504 kts | 79° |
| 2026-05-08 13:32 | 47.78592 | -68.67575 | 36798 ft | 504 kts | 80° |
| 2026-05-08 13:32 | 47.80103 | -68.57388 | 36795 ft | 505 kts | 80° |
| 2026-05-08 13:33 | 47.81599 | -68.47189 | 36794 ft | 504 kts | 80° |
| 2026-05-08 13:33 | 47.83095 | -68.36930 | 36769 ft | 504 kts | 80° |
| 2026-05-08 13:34 | 47.84577 | -68.26717 | 36777 ft | 505 kts | 81° |
| 2026-05-08 13:34 | 47.86053 | -68.16491 | 36780 ft | 505 kts | 81° |
| 2026-05-08 13:35 | 47.87524 | -68.06260 | 36786 ft | 505 kts | 81° |
| 2026-05-08 13:35 | 47.88988 | -67.96019 | 36784 ft | 506 kts | 81° |
| 2026-05-08 13:36 | 47.90430 | -67.85773 | 36782 ft | 505 kts | 81° |
| 2026-05-08 13:36 | 47.91864 | -67.75518 | 36778 ft | 505 kts | 81° |
| 2026-05-08 13:37 | 47.93296 | -67.65266 | 36775 ft | 505 kts | 81° |
| 2026-05-08 13:37 | 47.94718 | -67.55004 | 36772 ft | 506 kts | 81° |
| 2026-05-08 13:38 | 47.96127 | -67.44715 | 36782 ft | 505 kts | 81° |
| 2026-05-08 13:38 | 47.97527 | -67.34445 | 36748 ft | 506 kts | 82° |
| 2026-05-08 13:39 | 47.98923 | -67.24153 | 36754 ft | 506 kts | 82° |
| 2026-05-08 13:39 | 48.00313 | -67.13855 | 36755 ft | 506 kts | 82° |
| 2026-05-08 13:40 | 48.01684 | -67.03552 | 36752 ft | 506 kts | 82° |
| 2026-05-08 13:40 | 48.03060 | -66.93162 | 36749 ft | 506 kts | 82° |
| 2026-05-08 13:41 | 48.04420 | -66.82833 | 36717 ft | 507 kts | 83° |
| 2026-05-08 13:41 | 48.05771 | -66.72489 | 36719 ft | 507 kts | 83° |
| 2026-05-08 13:42 | 48.07112 | -66.62138 | 36731 ft | 507 kts | 83° |
| 2026-05-08 13:42 | 48.08444 | -66.51773 | 36725 ft | 507 kts | 83° |
| 2026-05-08 13:43 | 48.09775 | -66.41412 | 36727 ft | 508 kts | 83° |
| 2026-05-08 13:43 | 48.11094 | -66.31038 | 36699 ft | 508 kts | 83° |
| 2026-05-08 13:44 | 48.12398 | -66.20648 | 36714 ft | 508 kts | 83° |
| 2026-05-08 13:44 | 48.13693 | -66.10254 | 36741 ft | 508 kts | 84° |
| 2026-05-08 13:45 | 48.14982 | -65.99864 | 36742 ft | 507 kts | 84° |
| 2026-05-08 13:45 | 48.16260 | -65.89480 | 36737 ft | 507 kts | 84° |
| 2026-05-08 13:46 | 48.17523 | -65.79094 | 36684 ft | 506 kts | 84° |
| 2026-05-08 13:46 | 48.18778 | -65.68716 | 36693 ft | 506 kts | 84° |
| 2026-05-08 13:47 | 48.20023 | -65.58327 | 36703 ft | 506 kts | 85° |
| 2026-05-08 13:47 | 48.21262 | -65.47947 | 36693 ft | 506 kts | 85° |
| 2026-05-08 13:48 | 48.22501 | -65.37499 | 36694 ft | 506 kts | 85° |
| 2026-05-08 13:48 | 48.23711 | -65.27107 | 36658 ft | 506 kts | 85° |
| 2026-05-08 13:49 | 48.24918 | -65.16714 | 36679 ft | 506 kts | 85° |
| 2026-05-08 13:49 | 48.26124 | -65.06303 | 36691 ft | 506 kts | 86° |
| 2026-05-08 13:50 | 48.27317 | -64.95886 | 36697 ft | 506 kts | 86° |
| 2026-05-08 13:50 | 48.28497 | -64.85467 | 36703 ft | 506 kts | 86° |
| 2026-05-08 13:51 | 48.29665 | -64.75031 | 36673 ft | 507 kts | 86° |
| 2026-05-08 13:51 | 48.30828 | -64.64588 | 36686 ft | 507 kts | 86° |
| 2026-05-08 13:52 | 48.31984 | -64.54142 | 36695 ft | 507 kts | 86° |
| 2026-05-08 13:52 | 48.33136 | -64.43689 | 36701 ft | 507 kts | 86° |
| 2026-05-08 13:53 | 48.34270 | -64.33232 | 36702 ft | 506 kts | 87° |
| 2026-05-08 13:53 | 48.35393 | -64.22783 | 36703 ft | 506 kts | 87° |
| 2026-05-08 13:54 | 48.36509 | -64.12260 | 36672 ft | 507 kts | 88° |
| 2026-05-08 13:54 | 48.37615 | -64.01781 | 36688 ft | 508 kts | 88° |
| 2026-05-08 13:55 | 48.38714 | -63.91277 | 36717 ft | 508 kts | 88° |
| 2026-05-08 13:56 | 48.40346 | -63.75501 | 36727 ft | 509 kts | 88° |
| 2026-05-08 13:56 | 48.41428 | -63.64972 | 36686 ft | 509 kts | 89° |
| 2026-05-08 13:57 | 48.42499 | -63.54446 | 36700 ft | 509 kts | 89° |
| 2026-05-08 13:57 | 48.43557 | -63.43898 | 36717 ft | 509 kts | 89° |
| 2026-05-08 13:58 | 48.44596 | -63.33351 | 36723 ft | 509 kts | 89° |
| 2026-05-08 13:58 | 48.45632 | -63.22801 | 36726 ft | 509 kts | 89° |
| 2026-05-08 13:59 | 48.46673 | -63.12255 | 36676 ft | 509 kts | 89° |
| 2026-05-08 13:59 | 48.47692 | -63.01710 | 36694 ft | 509 kts | 90° |
| 2026-05-08 14:00 | 48.48700 | -62.91084 | 36705 ft | 508 kts | 90° |
| 2026-05-08 14:00 | 48.49694 | -62.80602 | 36712 ft | 508 kts | 90° |
| 2026-05-08 14:01 | 48.50525 | -62.71762 | 36706 ft | 508 kts | 90° |
| 2026-05-08 14:01 | 48.51506 | -62.61207 | 36710 ft | 508 kts | 90° |
| 2026-05-08 14:02 | 48.52644 | -62.48863 | 36716 ft | 508 kts | 90° |
| 2026-05-08 14:02 | 48.53444 | -62.40078 | 36713 ft | 508 kts | 90° |
| 2026-05-08 14:03 | 48.54398 | -62.29512 | 36719 ft | 509 kts | 90° |
| 2026-05-08 14:03 | 48.55334 | -62.18934 | 36722 ft | 508 kts | 91° |
| 2026-05-08 14:04 | 48.56263 | -62.08347 | 36722 ft | 509 kts | 91° |
| 2026-05-08 14:04 | 48.57192 | -61.97761 | 36724 ft | 509 kts | 91° |
| 2026-05-08 14:05 | 48.58111 | -61.87170 | 36738 ft | 509 kts | 92° |
| 2026-05-08 14:05 | 48.59021 | -61.76513 | 36740 ft | 508 kts | 92° |
| 2026-05-08 14:06 | 48.59916 | -61.65928 | 36738 ft | 508 kts | 92° |
| 2026-05-08 14:06 | 48.60794 | -61.55330 | 36742 ft | 508 kts | 92° |
| 2026-05-08 14:07 | 48.61660 | -61.44752 | 36703 ft | 507 kts | 93° |
| 2026-05-08 14:07 | 48.62522 | -61.34180 | 36719 ft | 507 kts | 93° |
| 2026-05-08 14:08 | 48.63383 | -61.23592 | 36724 ft | 508 kts | 93° |
| 2026-05-08 14:08 | 48.64236 | -61.12988 | 36731 ft | 508 kts | 93° |
| 2026-05-08 14:09 | 48.65073 | -61.02395 | 36729 ft | 507 kts | 93° |
| 2026-05-08 14:09 | 48.65888 | -60.91792 | 36714 ft | 508 kts | 94° |
| 2026-05-08 14:10 | 48.66700 | -60.81167 | 36721 ft | 508 kts | 94° |
| 2026-05-08 14:10 | 48.67517 | -60.70547 | 36728 ft | 508 kts | 94° |
| 2026-05-08 14:11 | 48.68319 | -60.59915 | 36720 ft | 508 kts | 94° |
| 2026-05-08 14:11 | 48.69102 | -60.49294 | 36724 ft | 508 kts | 94° |
| 2026-05-08 14:12 | 48.69878 | -60.38595 | 36709 ft | 508 kts | 94° |
| 2026-05-08 14:12 | 48.70647 | -60.27960 | 36721 ft | 508 kts | 94° |
| 2026-05-08 14:13 | 48.71409 | -60.17332 | 36723 ft | 508 kts | 94° |
| 2026-05-08 14:13 | 48.72157 | -60.06708 | 36724 ft | 507 kts | 95° |
| 2026-05-08 14:14 | 48.72887 | -59.96089 | 36705 ft | 507 kts | 95° |
| 2026-05-08 14:14 | 48.73608 | -59.85476 | 36720 ft | 507 kts | 95° |
| 2026-05-08 14:15 | 48.74326 | -59.74827 | 36732 ft | 508 kts | 95° |
| 2026-05-08 14:15 | 48.75036 | -59.64172 | 36732 ft | 508 kts | 95° |
| 2026-05-08 14:16 | 48.75732 | -59.53529 | 36734 ft | 508 kts | 95° |
| 2026-05-08 14:16 | 48.76432 | -59.42884 | 36739 ft | 507 kts | 95° |
| 2026-05-08 14:17 | 48.77111 | -59.32251 | 36706 ft | 506 kts | 96° |
| 2026-05-08 14:17 | 48.77777 | -59.21607 | 36724 ft | 507 kts | 96° |
| 2026-05-08 14:18 | 48.78434 | -59.10954 | 36731 ft | 507 kts | 96° |
| 2026-05-08 14:18 | 48.79078 | -59.00296 | 36734 ft | 507 kts | 96° |
| 2026-05-08 14:19 | 48.79715 | -58.89643 | 36736 ft | 507 kts | 96° |
| 2026-05-08 14:19 | 48.80355 | -58.78925 | 36663 ft | 507 kts | 96° |
| 2026-05-08 14:20 | 48.80968 | -58.68272 | 36715 ft | 507 kts | 96° |
| 2026-05-08 14:20 | 48.81574 | -58.57613 | 36702 ft | 507 kts | 96° |
| 2026-05-08 14:21 | 48.82176 | -58.46952 | 36702 ft | 507 kts | 96° |
| 2026-05-08 14:21 | 48.82764 | -58.36296 | 36700 ft | 507 kts | 96° |
| 2026-05-08 14:22 | 48.83348 | -58.25559 | 36634 ft | 507 kts | 96° |
| 2026-05-08 14:22 | 48.84809 | -58.14934 | 36711 ft | 537 kts | 72° |
| 2026-05-08 14:22 | 48.86828 | -58.10065 | 36700 ft | 551 kts | 57° |
| 2026-05-08 14:23 | 48.89197 | -58.05502 | 36694 ft | 551 kts | 57° |
| 2026-05-08 14:23 | 48.93962 | -57.96355 | 36694 ft | 551 kts | 57° |
| 2026-05-08 14:24 | 48.98693 | -57.87163 | 36701 ft | 552 kts | 58° |
| 2026-05-08 14:24 | 49.03393 | -57.77936 | 36697 ft | 552 kts | 58° |
| 2026-05-08 14:25 | 49.08104 | -57.68684 | 36697 ft | 552 kts | 57° |
| 2026-05-08 14:25 | 49.12812 | -57.59426 | 36713 ft | 552 kts | 58° |
| 2026-05-08 14:26 | 49.17119 | -57.50913 | 36718 ft | 551 kts | 58° |
| 2026-05-08 14:26 | 49.21794 | -57.41638 | 36716 ft | 550 kts | 58° |
| 2026-05-08 14:27 | 49.26459 | -57.32359 | 36690 ft | 549 kts | 58° |
| 2026-05-08 14:27 | 49.31102 | -57.23093 | 36697 ft | 548 kts | 58° |
| 2026-05-08 14:28 | 49.35739 | -57.13803 | 36699 ft | 548 kts | 58° |
| 2026-05-08 14:28 | 49.40361 | -57.04509 | 36688 ft | 547 kts | 58° |
| 2026-05-08 14:29 | 49.44974 | -56.95218 | 36691 ft | 547 kts | 58° |
| 2026-05-08 14:29 | 49.49601 | -56.85851 | 36634 ft | 546 kts | 58° |
| 2026-05-08 14:30 | 49.54059 | -56.76789 | 36660 ft | 546 kts | 58° |
| 2026-05-08 14:30 | 49.58597 | -56.67543 | 36654 ft | 547 kts | 58° |
| 2026-05-08 14:31 | 49.63181 | -56.58169 | 36666 ft | 547 kts | 58° |
| 2026-05-08 14:31 | 49.67765 | -56.48780 | 36670 ft | 548 kts | 58° |
| 2026-05-08 14:32 | 49.74616 | -56.34642 | 36663 ft | 549 kts | 58° |
| 2026-05-08 14:32 | 49.79178 | -56.25166 | 36669 ft | 549 kts | 58° |
| 2026-05-08 14:33 | 49.83747 | -56.15680 | 36675 ft | 549 kts | 58° |
| 2026-05-08 14:33 | 49.88314 | -56.06184 | 36668 ft | 550 kts | 58° |
| 2026-05-08 14:34 | 49.92865 | -55.96656 | 36677 ft | 550 kts | 58° |
| 2026-05-08 14:34 | 49.97413 | -55.87101 | 36681 ft | 550 kts | 58° |
| 2026-05-08 14:35 | 50.01958 | -55.77528 | 36672 ft | 550 kts | 58° |
| 2026-05-08 14:35 | 50.06497 | -55.67924 | 36677 ft | 551 kts | 59° |
| 2026-05-08 14:36 | 50.11031 | -55.58300 | 36683 ft | 551 kts | 59° |
| 2026-05-08 14:36 | 50.15472 | -55.48840 | 36684 ft | 551 kts | 59° |
| 2026-05-08 14:37 | 50.19906 | -55.39357 | 36675 ft | 551 kts | 59° |
| 2026-05-08 14:37 | 50.24420 | -55.29666 | 36678 ft | 552 kts | 59° |
| 2026-05-08 14:38 | 50.28930 | -55.19944 | 36689 ft | 552 kts | 59° |
| 2026-05-08 14:38 | 50.33436 | -55.10201 | 36696 ft | 553 kts | 59° |
| 2026-05-08 14:39 | 50.37936 | -55.00431 | 36700 ft | 553 kts | 59° |
| 2026-05-08 14:39 | 50.42428 | -54.90644 | 36708 ft | 553 kts | 59° |
| 2026-05-08 14:40 | 50.46918 | -54.80835 | 36712 ft | 553 kts | 59° |
| 2026-05-08 14:40 | 50.51393 | -54.71014 | 36711 ft | 553 kts | 59° |
| 2026-05-08 14:41 | 50.55857 | -54.61175 | 36712 ft | 553 kts | 59° |
| 2026-05-08 14:41 | 50.60315 | -54.51307 | 36715 ft | 553 kts | 59° |
| 2026-05-08 14:42 | 50.64755 | -54.41430 | 36715 ft | 553 kts | 59° |
| 2026-05-08 14:42 | 50.69156 | -54.31617 | 36703 ft | 552 kts | 59° |
| 2026-05-08 14:43 | 50.73589 | -54.21728 | 36713 ft | 552 kts | 59° |
| 2026-05-08 14:43 | 50.78009 | -54.11802 | 36717 ft | 552 kts | 59° |
| 2026-05-08 14:44 | 50.82438 | -54.01790 | 36702 ft | 552 kts | 59° |
| 2026-05-08 14:44 | 50.86831 | -53.91834 | 36716 ft | 551 kts | 59° |
| 2026-05-08 14:45 | 50.91217 | -53.81884 | 36711 ft | 551 kts | 59° |
| 2026-05-08 14:45 | 50.95594 | -53.71929 | 36709 ft | 550 kts | 60° |
| 2026-05-08 14:46 | 50.99946 | -53.61994 | 36715 ft | 547 kts | 60° |
| 2026-05-08 14:46 | 51.04226 | -53.52161 | 36728 ft | 546 kts | 60° |
| 2026-05-08 14:47 | 51.08411 | -53.42492 | 36729 ft | 545 kts | 60° |
| 2026-05-08 14:47 | 51.12702 | -53.32548 | 36711 ft | 544 kts | 60° |
| 2026-05-08 14:48 | 51.16812 | -53.22488 | 36723 ft | 537 kts | 68° |
| 2026-05-08 14:48 | 51.18375 | -53.17127 | 36935 ft | 533 kts | 73° |
| 2026-05-08 14:48 | 51.19852 | -53.11716 | 37271 ft | 532 kts | 72° |
| 2026-05-08 14:49 | 51.21336 | -53.06313 | 37567 ft | 531 kts | 72° |
| 2026-05-08 14:49 | 51.22819 | -53.00916 | 37712 ft | 532 kts | 72° |
| 2026-05-08 14:49 | 51.25792 | -52.90110 | 37707 ft | 531 kts | 72° |
| 2026-05-08 14:50 | 51.28265 | -52.81057 | 37718 ft | 530 kts | 72° |
| 2026-05-08 14:50 | 51.31188 | -52.70249 | 37718 ft | 529 kts | 73° |
| 2026-05-08 14:51 | 51.34095 | -52.59443 | 37721 ft | 530 kts | 73° |
| 2026-05-08 14:51 | 51.36998 | -52.48611 | 37732 ft | 530 kts | 73° |
| 2026-05-08 14:52 | 51.41299 | -52.32474 | 37734 ft | 529 kts | 72° |
| 2026-05-08 14:53 | 51.44139 | -52.21762 | 37748 ft | 528 kts | 72° |
| 2026-05-08 14:53 | 51.46902 | -52.11279 | 37752 ft | 528 kts | 72° |
| 2026-05-08 14:54 | 51.49753 | -52.00435 | 37751 ft | 528 kts | 72° |
| 2026-05-08 14:54 | 51.52597 | -51.89574 | 37741 ft | 528 kts | 72° |
| 2026-05-08 14:55 | 51.55421 | -51.78690 | 37744 ft | 528 kts | 72° |
| 2026-05-08 14:55 | 51.58263 | -51.67719 | 37743 ft | 528 kts | 72° |
| 2026-05-08 14:56 | 51.61078 | -51.56806 | 37747 ft | 529 kts | 73° |
| 2026-05-08 14:56 | 51.63885 | -51.45866 | 37739 ft | 529 kts | 72° |
| 2026-05-08 14:57 | 51.66689 | -51.34895 | 37752 ft | 530 kts | 72° |
| 2026-05-08 14:57 | 51.69484 | -51.23911 | 37769 ft | 530 kts | 72° |
| 2026-05-08 14:58 | 51.72260 | -51.12900 | 37769 ft | 529 kts | 72° |
| 2026-05-08 14:58 | 51.75021 | -51.01890 | 37767 ft | 529 kts | 71° |
| 2026-05-08 14:59 | 51.77781 | -50.90884 | 37781 ft | 529 kts | 72° |
| 2026-05-08 14:59 | 51.81894 | -50.74358 | 37790 ft | 528 kts | 72° |
| 2026-05-08 15:00 | 51.84575 | -50.63509 | 37787 ft | 528 kts | 72° |
| 2026-05-08 15:00 | 51.87285 | -50.52453 | 37797 ft | 528 kts | 72° |
| 2026-05-08 15:01 | 51.89989 | -50.41394 | 37808 ft | 529 kts | 72° |
| 2026-05-08 15:01 | 51.92713 | -50.30251 | 37776 ft | 528 kts | 72° |
| 2026-05-08 15:02 | 51.95403 | -50.19195 | 37806 ft | 527 kts | 72° |
| 2026-05-08 15:02 | 51.98065 | -50.08124 | 37827 ft | 526 kts | 72° |
| 2026-05-08 15:03 | 52.00718 | -49.97071 | 37836 ft | 525 kts | 71° |
| 2026-05-08 15:03 | 52.03459 | -49.86091 | 37840 ft | 525 kts | 70° |
| 2026-05-08 15:04 | 52.06240 | -49.75150 | 37839 ft | 524 kts | 70° |
| 2026-05-08 15:04 | 52.08998 | -49.64179 | 37851 ft | 524 kts | 71° |
| 2026-05-08 15:05 | 52.11726 | -49.53202 | 37859 ft | 523 kts | 70° |
| 2026-05-08 15:05 | 52.14440 | -49.42219 | 37859 ft | 523 kts | 71° |
| 2026-05-08 15:06 | 52.17129 | -49.31229 | 37860 ft | 522 kts | 71° |
| 2026-05-08 15:06 | 52.19813 | -49.20235 | 37839 ft | 522 kts | 70° |
| 2026-05-08 15:07 | 52.22490 | -49.09256 | 37870 ft | 521 kts | 70° |
| 2026-05-08 15:07 | 52.25148 | -48.98266 | 37875 ft | 520 kts | 70° |
| 2026-05-08 15:08 | 52.27376 | -48.89061 | 37877 ft | 520 kts | 70° |
| 2026-05-08 15:08 | 52.30453 | -48.76291 | 37894 ft | 519 kts | 71° |
| 2026-05-08 15:09 | 52.33081 | -48.65220 | 37884 ft | 519 kts | 70° |
| 2026-05-08 15:09 | 52.35685 | -48.54221 | 37892 ft | 518 kts | 70° |
| 2026-05-08 15:10 | 52.38286 | -48.43219 | 37892 ft | 518 kts | 71° |
| 2026-05-08 15:10 | 52.40870 | -48.32204 | 37900 ft | 518 kts | 71° |
| 2026-05-08 15:11 | 52.43454 | -48.21178 | 37912 ft | 518 kts | 71° |
| 2026-05-08 15:11 | 52.46018 | -48.10136 | 37919 ft | 518 kts | 70° |
| 2026-05-08 15:12 | 52.48569 | -47.99092 | 37920 ft | 517 kts | 70° |
| 2026-05-08 15:12 | 52.51098 | -47.88068 | 37925 ft | 516 kts | 70° |
| 2026-05-08 15:13 | 52.53620 | -47.77048 | 37951 ft | 515 kts | 70° |
| 2026-05-08 15:13 | 52.56132 | -47.66032 | 37945 ft | 515 kts | 70° |
| 2026-05-08 15:14 | 52.58634 | -47.54994 | 37944 ft | 515 kts | 70° |
| 2026-05-08 15:14 | 52.61128 | -47.43948 | 37940 ft | 515 kts | 70° |
| 2026-05-08 15:15 | 52.63627 | -47.32812 | 37961 ft | 515 kts | 70° |
| 2026-05-08 15:15 | 52.66091 | -47.21743 | 37968 ft | 515 kts | 70° |
| 2026-05-08 15:16 | 52.68557 | -47.10655 | 37969 ft | 515 kts | 70° |
| 2026-05-08 15:16 | 52.71003 | -46.99547 | 37961 ft | 516 kts | 70° |
| 2026-05-08 15:17 | 52.73435 | -46.88414 | 37956 ft | 516 kts | 70° |
| 2026-05-08 15:17 | 52.75867 | -46.77290 | 37993 ft | 515 kts | 69° |
| 2026-05-08 15:18 | 52.78286 | -46.66170 | 38002 ft | 515 kts | 69° |
| 2026-05-08 15:18 | 52.80689 | -46.55033 | 38016 ft | 515 kts | 69° |
| 2026-05-08 15:19 | 52.83073 | -46.43882 | 38013 ft | 514 kts | 69° |
| 2026-05-08 15:19 | 52.85455 | -46.32729 | 38036 ft | 514 kts | 69° |
| 2026-05-08 15:20 | 52.87830 | -46.21572 | 38042 ft | 514 kts | 69° |
| 2026-05-08 15:20 | 52.90189 | -46.10407 | 38039 ft | 513 kts | 69° |
| 2026-05-08 15:21 | 52.92537 | -45.99249 | 38047 ft | 513 kts | 69° |
| 2026-05-08 15:21 | 52.94864 | -45.88064 | 38060 ft | 513 kts | 69° |
| 2026-05-08 15:22 | 52.96806 | -45.78684 | 38069 ft | 514 kts | 69° |
| 2026-05-08 15:22 | 52.99128 | -45.67480 | 38049 ft | 514 kts | 69° |
| 2026-05-08 15:23 | 53.01440 | -45.56273 | 38092 ft | 512 kts | 69° |
| 2026-05-08 15:23 | 53.03723 | -45.45084 | 38097 ft | 511 kts | 69° |
| 2026-05-08 15:24 | 53.05986 | -45.33917 | 38101 ft | 509 kts | 69° |
| 2026-05-08 15:24 | 53.08240 | -45.22754 | 38115 ft | 509 kts | 69° |
| 2026-05-08 15:25 | 53.10488 | -45.11602 | 38113 ft | 508 kts | 69° |
| 2026-05-08 15:25 | 53.12719 | -45.00451 | 38121 ft | 507 kts | 69° |
| 2026-05-08 15:26 | 53.14934 | -44.89296 | 38132 ft | 508 kts | 69° |
| 2026-05-08 15:26 | 53.17141 | -44.78120 | 38139 ft | 508 kts | 69° |
| 2026-05-08 15:27 | 53.19343 | -44.66932 | 38144 ft | 507 kts | 69° |
| 2026-05-08 15:27 | 53.21524 | -44.55749 | 38155 ft | 506 kts | 69° |
| 2026-05-08 15:28 | 53.23701 | -44.44502 | 38165 ft | 506 kts | 69° |
| 2026-05-08 15:28 | 53.25858 | -44.33337 | 38168 ft | 505 kts | 69° |
| 2026-05-08 15:29 | 53.28007 | -44.22172 | 38182 ft | 504 kts | 69° |
| 2026-05-08 15:29 | 53.30128 | -44.11021 | 38192 ft | 502 kts | 69° |
| 2026-05-08 15:30 | 53.32233 | -43.99914 | 38187 ft | 500 kts | 69° |
| 2026-05-08 15:30 | 53.34324 | -43.88827 | 38193 ft | 499 kts | 69° |
| 2026-05-08 15:31 | 53.36406 | -43.77755 | 38189 ft | 498 kts | 69° |
| 2026-05-08 15:31 | 53.38463 | -43.66687 | 38211 ft | 498 kts | 68° |
| 2026-05-08 15:32 | 53.40504 | -43.55614 | 38216 ft | 497 kts | 69° |
| 2026-05-08 15:32 | 53.42543 | -43.44566 | 38212 ft | 495 kts | 68° |
| 2026-05-08 15:33 | 53.44579 | -43.33461 | 38215 ft | 495 kts | 69° |
| 2026-05-08 15:33 | 53.46590 | -43.22416 | 38212 ft | 495 kts | 69° |
| 2026-05-08 15:34 | 53.48585 | -43.11364 | 38235 ft | 494 kts | 68° |
| 2026-05-08 15:34 | 53.50565 | -43.00311 | 38228 ft | 493 kts | 68° |
| 2026-05-08 15:35 | 53.52533 | -42.89270 | 38242 ft | 493 kts | 68° |
| 2026-05-08 15:35 | 53.54499 | -42.78228 | 38240 ft | 493 kts | 69° |
| 2026-05-08 15:36 | 53.56456 | -42.67177 | 38245 ft | 493 kts | 69° |
| 2026-05-08 15:36 | 53.58399 | -42.56111 | 38262 ft | 493 kts | 68° |
| 2026-05-08 15:37 | 53.60321 | -42.45046 | 38263 ft | 492 kts | 68° |
| 2026-05-08 15:37 | 53.62230 | -42.33990 | 38269 ft | 491 kts | 68° |
| 2026-05-08 15:38 | 53.64132 | -42.22939 | 38268 ft | 491 kts | 68° |
| 2026-05-08 15:38 | 53.66030 | -42.11886 | 38267 ft | 491 kts | 69° |
| 2026-05-08 15:39 | 53.67911 | -42.00835 | 38291 ft | 490 kts | 68° |
| 2026-05-08 15:39 | 53.69785 | -41.89726 | 38301 ft | 488 kts | 68° |
| 2026-05-08 15:40 | 53.71625 | -41.78738 | 38308 ft | 485 kts | 68° |
| 2026-05-08 15:40 | 53.73450 | -41.67785 | 38312 ft | 483 kts | 68° |
| 2026-05-08 15:41 | 53.75260 | -41.56874 | 38332 ft | 482 kts | 68° |
| 2026-05-08 15:41 | 53.77057 | -41.45976 | 38328 ft | 480 kts | 68° |
| 2026-05-08 15:42 | 53.78829 | -41.35117 | 38326 ft | 478 kts | 68° |
| 2026-05-08 15:42 | 53.80589 | -41.24283 | 38327 ft | 478 kts | 68° |
| 2026-05-08 15:43 | 53.82345 | -41.13445 | 38328 ft | 477 kts | 68° |
| 2026-05-08 15:43 | 53.84087 | -41.02603 | 38354 ft | 477 kts | 68° |
| 2026-05-08 15:44 | 53.85815 | -40.91763 | 38347 ft | 476 kts | 68° |
| 2026-05-08 15:44 | 53.87530 | -40.80938 | 38351 ft | 475 kts | 68° |
| 2026-05-08 15:45 | 53.89232 | -40.70121 | 38342 ft | 474 kts | 68° |
| 2026-05-08 15:45 | 53.90925 | -40.59233 | 38359 ft | 474 kts | 68° |
| 2026-05-08 15:46 | 53.92604 | -40.48446 | 38362 ft | 472 kts | 68° |
| 2026-05-08 15:46 | 53.94268 | -40.37686 | 38367 ft | 471 kts | 68° |
| 2026-05-08 15:47 | 53.95917 | -40.26946 | 38362 ft | 470 kts | 68° |
| 2026-05-08 15:47 | 53.97550 | -40.16204 | 38361 ft | 469 kts | 69° |
| 2026-05-08 15:48 | 53.99979 | -40.00098 | 38359 ft | 469 kts | 69° |
| 2026-05-08 15:49 | 54.01555 | -39.89344 | 38372 ft | 469 kts | 69° |
| 2026-05-08 15:49 | 54.03090 | -39.78552 | 38376 ft | 469 kts | 69° |
| 2026-05-08 15:50 | 54.04614 | -39.67767 | 38381 ft | 469 kts | 69° |
| 2026-05-08 15:50 | 54.06138 | -39.56967 | 38382 ft | 469 kts | 69° |
| 2026-05-08 15:51 | 54.07654 | -39.46155 | 38388 ft | 469 kts | 69° |
| 2026-05-08 15:51 | 54.09158 | -39.35332 | 38398 ft | 470 kts | 69° |
| 2026-05-08 15:52 | 54.10649 | -39.24506 | 38408 ft | 469 kts | 69° |
| 2026-05-08 15:52 | 54.12126 | -39.13685 | 38403 ft | 469 kts | 69° |
| 2026-05-08 15:53 | 54.13619 | -39.02792 | 38403 ft | 468 kts | 69° |
| 2026-05-08 15:53 | 54.15078 | -38.91961 | 38402 ft | 468 kts | 69° |
| 2026-05-08 15:54 | 54.16285 | -38.82961 | 38432 ft | 468 kts | 68° |
| 2026-05-08 15:54 | 54.17730 | -38.72124 | 38423 ft | 468 kts | 69° |
| 2026-05-08 15:55 | 54.19160 | -38.61299 | 38425 ft | 467 kts | 69° |
| 2026-05-08 15:55 | 54.21299 | -38.45065 | 38421 ft | 467 kts | 69° |
| 2026-05-08 15:56 | 54.22711 | -38.34220 | 38422 ft | 467 kts | 69° |
| 2026-05-08 15:56 | 54.24101 | -38.23372 | 38449 ft | 467 kts | 69° |
| 2026-05-08 15:57 | 54.25484 | -38.12519 | 38441 ft | 467 kts | 69° |
| 2026-05-08 15:57 | 54.26860 | -38.01657 | 38454 ft | 467 kts | 68° |
| 2026-05-08 15:58 | 54.28238 | -37.90720 | 38450 ft | 467 kts | 68° |
| 2026-05-08 15:58 | 54.29596 | -37.79854 | 38446 ft | 467 kts | 69° |
| 2026-05-08 15:59 | 54.30940 | -37.68992 | 38473 ft | 466 kts | 68° |
| 2026-05-08 15:59 | 54.32271 | -37.58169 | 38467 ft | 464 kts | 68° |
| 2026-05-08 16:00 | 54.33595 | -37.47357 | 38465 ft | 463 kts | 68° |
| 2026-05-08 16:00 | 54.34900 | -37.36563 | 38463 ft | 463 kts | 68° |
| 2026-05-08 16:01 | 54.36196 | -37.25758 | 38469 ft | 462 kts | 68° |
| 2026-05-08 16:01 | 54.37488 | -37.14962 | 38469 ft | 460 kts | 68° |
| 2026-05-08 16:02 | 54.38752 | -37.04225 | 38468 ft | 459 kts | 68° |
| 2026-05-08 16:02 | 54.40011 | -36.93503 | 38475 ft | 459 kts | 68° |
| 2026-05-08 16:03 | 54.41262 | -36.82766 | 38481 ft | 459 kts | 68° |
| 2026-05-08 16:03 | 54.42500 | -36.72025 | 38481 ft | 459 kts | 69° |
| 2026-05-08 16:04 | 54.43728 | -36.61278 | 38512 ft | 458 kts | 68° |
| 2026-05-08 16:04 | 54.44943 | -36.50551 | 38475 ft | 457 kts | 68° |
| 2026-05-08 16:05 | 54.46154 | -36.39807 | 38474 ft | 458 kts | 68° |
| 2026-05-08 16:05 | 54.47352 | -36.29046 | 38476 ft | 458 kts | 68° |
| 2026-05-08 16:06 | 54.48538 | -36.18276 | 38492 ft | 459 kts | 68° |
| 2026-05-08 16:06 | 54.49730 | -36.07417 | 38494 ft | 459 kts | 68° |
| 2026-05-08 16:07 | 54.50901 | -35.96616 | 38512 ft | 459 kts | 68° |
| 2026-05-08 16:07 | 54.52061 | -35.85799 | 38512 ft | 460 kts | 68° |
| 2026-05-08 16:08 | 54.53221 | -35.74979 | 38501 ft | 460 kts | 68° |
| 2026-05-08 16:08 | 54.54362 | -35.64133 | 38505 ft | 460 kts | 69° |
| 2026-05-08 16:09 | 54.55494 | -35.53283 | 38504 ft | 460 kts | 69° |
| 2026-05-08 16:09 | 54.56622 | -35.42416 | 38522 ft | 461 kts | 69° |
| 2026-05-08 16:10 | 54.57746 | -35.31550 | 38524 ft | 461 kts | 69° |
| 2026-05-08 16:10 | 54.58857 | -35.20673 | 38524 ft | 460 kts | 69° |
| 2026-05-08 16:11 | 54.59951 | -35.09804 | 38522 ft | 460 kts | 69° |
| 2026-05-08 16:11 | 54.61034 | -34.98929 | 38519 ft | 460 kts | 69° |
| 2026-05-08 16:12 | 54.62108 | -34.88057 | 38516 ft | 460 kts | 69° |
| 2026-05-08 16:12 | 54.63176 | -34.77177 | 38519 ft | 460 kts | 70° |
| 2026-05-08 16:13 | 54.64241 | -34.66212 | 38519 ft | 460 kts | 70° |
| 2026-05-08 16:13 | 54.65290 | -34.55316 | 38513 ft | 460 kts | 70° |
| 2026-05-08 16:14 | 54.66331 | -34.44422 | 38520 ft | 460 kts | 70° |
| 2026-05-08 16:14 | 54.67356 | -34.33507 | 38550 ft | 461 kts | 70° |
| 2026-05-08 16:15 | 54.68377 | -34.22564 | 38533 ft | 461 kts | 70° |
| 2026-05-08 16:15 | 54.69393 | -34.11619 | 38524 ft | 462 kts | 70° |
| 2026-05-08 16:16 | 54.70402 | -34.00640 | 38535 ft | 463 kts | 71° |
| 2026-05-08 16:16 | 54.71396 | -33.89638 | 38521 ft | 464 kts | 71° |
| 2026-05-08 16:17 | 54.72214 | -33.80469 | 38515 ft | 464 kts | 71° |
| 2026-05-08 16:17 | 54.73361 | -33.67545 | 38518 ft | 466 kts | 72° |
| 2026-05-08 16:18 | 54.74336 | -33.56444 | 38508 ft | 467 kts | 72° |
| 2026-05-08 16:18 | 54.75302 | -33.45316 | 38509 ft | 468 kts | 72° |
| 2026-05-08 16:19 | 54.76255 | -33.34163 | 38515 ft | 469 kts | 72° |
| 2026-05-08 16:19 | 54.77203 | -33.22979 | 38517 ft | 469 kts | 72° |
| 2026-05-08 16:20 | 54.78144 | -33.11798 | 38552 ft | 469 kts | 73° |
| 2026-05-08 16:20 | 54.79071 | -33.00599 | 38544 ft | 470 kts | 73° |
| 2026-05-08 16:21 | 54.79997 | -32.89325 | 38543 ft | 470 kts | 73° |
| 2026-05-08 16:21 | 54.80904 | -32.78112 | 38541 ft | 470 kts | 73° |
| 2026-05-08 16:22 | 54.81798 | -32.66889 | 38562 ft | 470 kts | 74° |
| 2026-05-08 16:22 | 54.82677 | -32.55692 | 38528 ft | 466 kts | 75° |
| 2026-05-08 16:23 | 54.83537 | -32.44588 | 38525 ft | 464 kts | 75° |
| 2026-05-08 16:23 | 54.84394 | -32.33494 | 38529 ft | 464 kts | 75° |
| 2026-05-08 16:24 | 54.85246 | -32.22387 | 38535 ft | 465 kts | 75° |
| 2026-05-08 16:24 | 54.86089 | -32.11269 | 38539 ft | 465 kts | 75° |
| 2026-05-08 16:25 | 54.86916 | -32.00138 | 38556 ft | 464 kts | 75° |
| 2026-05-08 16:25 | 54.87721 | -31.89043 | 38548 ft | 462 kts | 75° |
| 2026-05-08 16:26 | 54.88523 | -31.77964 | 38546 ft | 462 kts | 75° |
| 2026-05-08 16:26 | 54.89316 | -31.66884 | 38546 ft | 462 kts | 75° |
| 2026-05-08 16:27 | 54.90100 | -31.55797 | 38552 ft | 462 kts | 75° |
| 2026-05-08 16:27 | 54.90876 | -31.44712 | 38590 ft | 462 kts | 76° |
| 2026-05-08 16:28 | 54.91516 | -31.35432 | 38548 ft | 461 kts | 76° |
| 2026-05-08 16:28 | 54.92263 | -31.24375 | 38571 ft | 461 kts | 76° |
| 2026-05-08 16:29 | 54.92998 | -31.13305 | 38555 ft | 461 kts | 76° |
| 2026-05-08 16:29 | 54.93724 | -31.02224 | 38550 ft | 461 kts | 76° |
| 2026-05-08 16:30 | 54.94455 | -30.91144 | 38544 ft | 461 kts | 76° |
| 2026-05-08 16:30 | 54.95169 | -30.80054 | 38572 ft | 462 kts | 76° |
| 2026-05-08 16:31 | 54.95869 | -30.68953 | 38558 ft | 461 kts | 77° |
| 2026-05-08 16:31 | 54.96558 | -30.57859 | 38550 ft | 461 kts | 77° |
| 2026-05-08 16:32 | 54.97241 | -30.46755 | 38549 ft | 461 kts | 77° |
| 2026-05-08 16:32 | 54.97915 | -30.35650 | 38545 ft | 461 kts | 77° |
| 2026-05-08 16:33 | 54.98573 | -30.24545 | 38571 ft | 461 kts | 77° |
| 2026-05-08 16:33 | 54.99220 | -30.13363 | 38558 ft | 461 kts | 77° |
| 2026-05-08 16:34 | 54.99854 | -30.02254 | 38552 ft | 461 kts | 77° |
| 2026-05-08 16:34 | 55.00399 | -29.91112 | 38542 ft | 462 kts | 78° |
| 2026-05-08 16:35 | 55.00835 | -29.79943 | 38539 ft | 463 kts | 79° |
| 2026-05-08 16:35 | 55.01239 | -29.68761 | 38577 ft | 462 kts | 79° |
| 2026-05-08 16:36 | 55.01659 | -29.57609 | 38532 ft | 460 kts | 79° |
| 2026-05-08 16:36 | 55.02087 | -29.46482 | 38530 ft | 460 kts | 79° |
| 2026-05-08 16:37 | 55.02493 | -29.35330 | 38529 ft | 461 kts | 79° |
| 2026-05-08 16:37 | 55.02883 | -29.24183 | 38526 ft | 461 kts | 79° |
| 2026-05-08 16:38 | 55.03264 | -29.13033 | 38525 ft | 461 kts | 79° |
| 2026-05-08 16:38 | 55.03637 | -29.01877 | 38527 ft | 461 kts | 79° |
| 2026-05-08 16:39 | 55.03990 | -28.90716 | 38525 ft | 461 kts | 79° |
| 2026-05-08 16:39 | 55.04342 | -28.79547 | 38524 ft | 461 kts | 79° |
| 2026-05-08 16:40 | 55.04691 | -28.68381 | 38525 ft | 461 kts | 79° |
| 2026-05-08 16:40 | 55.05024 | -28.57204 | 38540 ft | 461 kts | 79° |
| 2026-05-08 16:41 | 55.05340 | -28.46039 | 38533 ft | 461 kts | 79° |
| 2026-05-08 16:42 | 55.05806 | -28.29257 | 38532 ft | 459 kts | 79° |
| 2026-05-08 16:42 | 55.06099 | -28.18200 | 38528 ft | 459 kts | 80° |
| 2026-05-08 16:43 | 55.06379 | -28.06999 | 38524 ft | 459 kts | 80° |
| 2026-05-08 16:43 | 55.06657 | -27.95882 | 38520 ft | 459 kts | 80° |
| 2026-05-08 16:44 | 55.06928 | -27.84757 | 38549 ft | 459 kts | 80° |
| 2026-05-08 16:44 | 55.07180 | -27.73630 | 38531 ft | 459 kts | 80° |
| 2026-05-08 16:45 | 55.07429 | -27.62502 | 38523 ft | 459 kts | 80° |
| 2026-05-08 16:45 | 55.07665 | -27.51373 | 38514 ft | 459 kts | 80° |
| 2026-05-08 16:46 | 55.07885 | -27.40237 | 38509 ft | 459 kts | 80° |
| 2026-05-08 16:46 | 55.08104 | -27.29104 | 38528 ft | 459 kts | 81° |
| 2026-05-08 16:47 | 55.08307 | -27.17972 | 38499 ft | 458 kts | 81° |
| 2026-05-08 16:47 | 55.08504 | -27.06850 | 38496 ft | 459 kts | 81° |
| 2026-05-08 16:48 | 55.08687 | -26.95719 | 38486 ft | 459 kts | 81° |
| 2026-05-08 16:48 | 55.08856 | -26.84566 | 38491 ft | 460 kts | 81° |
| 2026-05-08 16:49 | 55.09019 | -26.73406 | 38491 ft | 460 kts | 81° |
| 2026-05-08 16:49 | 55.09170 | -26.62174 | 38521 ft | 460 kts | 81° |
| 2026-05-08 16:50 | 55.09314 | -26.51001 | 38508 ft | 460 kts | 81° |
| 2026-05-08 16:50 | 55.09453 | -26.39835 | 38498 ft | 460 kts | 81° |
| 2026-05-08 16:51 | 55.09573 | -26.28657 | 38492 ft | 461 kts | 82° |
| 2026-05-08 16:51 | 55.09683 | -26.17471 | 38496 ft | 461 kts | 82° |
| 2026-05-08 16:52 | 55.09786 | -26.06288 | 38532 ft | 461 kts | 82° |
| 2026-05-08 16:52 | 55.09876 | -25.95141 | 38477 ft | 458 kts | 82° |
| 2026-05-08 16:53 | 55.10001 | -25.78450 | 38472 ft | 458 kts | 82° |
| 2026-05-08 16:53 | 55.10064 | -25.67320 | 38472 ft | 459 kts | 82° |
| 2026-05-08 16:54 | 55.10124 | -25.56182 | 38472 ft | 459 kts | 82° |
| 2026-05-08 16:54 | 55.10169 | -25.45045 | 38500 ft | 459 kts | 83° |
| 2026-05-08 16:55 | 55.10201 | -25.33890 | 38483 ft | 459 kts | 83° |
| 2026-05-08 16:55 | 55.10229 | -25.22747 | 38475 ft | 459 kts | 83° |
| 2026-05-08 16:56 | 55.10250 | -25.11526 | 38474 ft | 459 kts | 83° |
| 2026-05-08 16:56 | 55.10252 | -25.00376 | 38466 ft | 459 kts | 83° |
| 2026-05-08 16:57 | 55.10249 | -24.89218 | 38465 ft | 459 kts | 83° |
| 2026-05-08 16:57 | 55.10232 | -24.78064 | 38482 ft | 460 kts | 84° |
| 2026-05-08 16:58 | 55.10204 | -24.66897 | 38482 ft | 459 kts | 84° |
| 2026-05-08 16:58 | 55.10167 | -24.55742 | 38472 ft | 459 kts | 84° |
| 2026-05-08 16:59 | 55.10120 | -24.44583 | 38461 ft | 459 kts | 84° |
| 2026-05-08 16:59 | 55.10073 | -24.33433 | 38455 ft | 459 kts | 84° |
| 2026-05-08 17:00 | 55.10014 | -24.22285 | 38480 ft | 459 kts | 85° |
| 2026-05-08 17:00 | 55.09934 | -24.11129 | 38462 ft | 460 kts | 85° |
| 2026-05-08 17:01 | 55.09860 | -24.01770 | 38455 ft | 460 kts | 85° |
| 2026-05-08 17:01 | 55.09754 | -23.90603 | 38450 ft | 460 kts | 85° |
| 2026-05-08 17:02 | 55.09649 | -23.79433 | 38444 ft | 460 kts | 85° |
| 2026-05-08 17:02 | 55.09534 | -23.68266 | 38443 ft | 460 kts | 85° |
| 2026-05-08 17:03 | 55.09412 | -23.57092 | 38455 ft | 461 kts | 86° |
| 2026-05-08 17:03 | 55.09275 | -23.45910 | 38444 ft | 461 kts | 86° |
| 2026-05-08 17:04 | 55.09131 | -23.34721 | 38434 ft | 461 kts | 86° |
| 2026-05-08 17:04 | 55.08974 | -23.23523 | 38437 ft | 461 kts | 86° |
| 2026-05-08 17:05 | 55.08805 | -23.12324 | 38432 ft | 461 kts | 86° |
| 2026-05-08 17:05 | 55.08626 | -23.01130 | 38431 ft | 462 kts | 86° |
| 2026-05-08 17:06 | 55.08446 | -22.89936 | 38419 ft | 462 kts | 86° |
| 2026-05-08 17:06 | 55.08249 | -22.78737 | 38414 ft | 462 kts | 86° |
| 2026-05-08 17:07 | 55.08036 | -22.67538 | 38413 ft | 462 kts | 87° |
| 2026-05-08 17:07 | 55.07807 | -22.56250 | 38422 ft | 462 kts | 87° |
| 2026-05-08 17:08 | 55.07579 | -22.45054 | 38442 ft | 462 kts | 87° |
| 2026-05-08 17:08 | 55.07341 | -22.33848 | 38427 ft | 462 kts | 87° |
| 2026-05-08 17:09 | 55.07097 | -22.22636 | 38420 ft | 463 kts | 87° |
| 2026-05-08 17:09 | 55.06833 | -22.11421 | 38421 ft | 463 kts | 88° |
| 2026-05-08 17:10 | 55.06561 | -22.00191 | 38418 ft | 463 kts | 88° |
| 2026-05-08 17:10 | 55.06290 | -21.88987 | 38407 ft | 463 kts | 88° |
| 2026-05-08 17:11 | 55.06002 | -21.77758 | 38414 ft | 463 kts | 88° |
| 2026-05-08 17:11 | 55.05699 | -21.66532 | 38400 ft | 464 kts | 88° |
| 2026-05-08 17:12 | 55.05372 | -21.55214 | 38402 ft | 464 kts | 89° |
| 2026-05-08 17:12 | 55.05047 | -21.43971 | 38395 ft | 464 kts | 89° |
| 2026-05-08 17:13 | 55.04719 | -21.32724 | 38389 ft | 464 kts | 89° |
| 2026-05-08 17:13 | 55.04377 | -21.21468 | 38407 ft | 465 kts | 89° |
| 2026-05-08 17:14 | 55.04022 | -21.10208 | 38389 ft | 466 kts | 89° |
| 2026-05-08 17:14 | 55.03653 | -20.98930 | 38382 ft | 466 kts | 89° |
| 2026-05-08 17:15 | 55.03276 | -20.87648 | 38384 ft | 467 kts | 90° |
| 2026-05-08 17:15 | 55.02894 | -20.76351 | 38371 ft | 467 kts | 90° |
| 2026-05-08 17:16 | 55.02498 | -20.65044 | 38376 ft | 467 kts | 90° |
| 2026-05-08 17:16 | 55.02077 | -20.53727 | 38380 ft | 468 kts | 90° |
| 2026-05-08 17:17 | 55.01654 | -20.42398 | 38372 ft | 469 kts | 90° |
| 2026-05-08 17:17 | 55.01226 | -20.31063 | 38368 ft | 469 kts | 90° |
| 2026-05-08 17:18 | 55.00786 | -20.19721 | 38367 ft | 469 kts | 90° |
| 2026-05-08 17:18 | 55.00331 | -20.08300 | 38371 ft | 470 kts | 91° |
| 2026-05-08 17:19 | 54.99471 | -19.97010 | 38379 ft | 474 kts | 103° |
| 2026-05-08 17:19 | 54.97530 | -19.86021 | 38366 ft | 475 kts | 104° |
| 2026-05-08 17:20 | 54.95588 | -19.75016 | 38366 ft | 476 kts | 104° |
| 2026-05-08 17:20 | 54.93637 | -19.64006 | 38360 ft | 477 kts | 105° |
| 2026-05-08 17:21 | 54.91663 | -19.52999 | 38352 ft | 477 kts | 105° |
| 2026-05-08 17:21 | 54.89679 | -19.41989 | 38352 ft | 477 kts | 105° |
| 2026-05-08 17:22 | 54.87691 | -19.30986 | 38356 ft | 478 kts | 105° |
| 2026-05-08 17:22 | 54.85689 | -19.19987 | 38345 ft | 478 kts | 105° |
| 2026-05-08 17:23 | 54.83669 | -19.08976 | 38345 ft | 479 kts | 105° |
| 2026-05-08 17:23 | 54.81644 | -18.97976 | 38347 ft | 479 kts | 105° |
| 2026-05-08 17:24 | 54.79596 | -18.86975 | 38338 ft | 480 kts | 106° |
| 2026-05-08 17:24 | 54.77546 | -18.75966 | 38337 ft | 480 kts | 105° |
| 2026-05-08 17:25 | 54.75488 | -18.64954 | 38330 ft | 481 kts | 107° |
| 2026-05-08 17:25 | 54.73409 | -18.53941 | 38326 ft | 482 kts | 107° |
| 2026-05-08 17:26 | 54.71310 | -18.42920 | 38329 ft | 483 kts | 107° |
| 2026-05-08 17:26 | 54.69188 | -18.31820 | 38332 ft | 483 kts | 107° |
| 2026-05-08 17:27 | 54.67071 | -18.20790 | 38330 ft | 483 kts | 107° |
| 2026-05-08 17:27 | 54.64941 | -18.09775 | 38333 ft | 484 kts | 107° |
| 2026-05-08 17:28 | 54.62806 | -17.98761 | 38326 ft | 484 kts | 108° |
| 2026-05-08 17:28 | 54.60657 | -17.87745 | 38314 ft | 485 kts | 107° |
| 2026-05-08 17:29 | 54.58538 | -17.76954 | 38321 ft | 486 kts | 108° |
| 2026-05-08 17:29 | 54.56425 | -17.66297 | 38312 ft | 486 kts | 108° |
| 2026-05-08 17:30 | 54.54232 | -17.55287 | 38326 ft | 486 kts | 108° |
| 2026-05-08 17:30 | 54.52026 | -17.44262 | 38316 ft | 487 kts | 108° |
| 2026-05-08 17:31 | 54.49814 | -17.33256 | 38311 ft | 487 kts | 109° |
| 2026-05-08 17:31 | 54.47594 | -17.22244 | 38300 ft | 488 kts | 109° |
| 2026-05-08 17:32 | 54.45363 | -17.11219 | 38303 ft | 488 kts | 109° |
| 2026-05-08 17:32 | 54.43113 | -17.00205 | 38302 ft | 489 kts | 109° |
| 2026-05-08 17:33 | 54.41215 | -16.90981 | 38308 ft | 489 kts | 109° |
| 2026-05-08 17:33 | 54.38945 | -16.79975 | 38297 ft | 489 kts | 109° |
| 2026-05-08 17:34 | 54.36663 | -16.68989 | 38302 ft | 489 kts | 110° |
| 2026-05-08 17:34 | 54.34365 | -16.58025 | 38297 ft | 489 kts | 110° |
| 2026-05-08 17:35 | 54.32066 | -16.47059 | 38296 ft | 488 kts | 110° |
| 2026-05-08 17:35 | 54.29761 | -16.36120 | 38292 ft | 488 kts | 110° |
| 2026-05-08 17:36 | 54.27445 | -16.25194 | 38295 ft | 488 kts | 110° |
| 2026-05-08 17:36 | 54.25119 | -16.14282 | 38295 ft | 488 kts | 111° |
| 2026-05-08 17:37 | 54.22785 | -16.03383 | 38292 ft | 488 kts | 111° |
| 2026-05-08 17:37 | 54.20439 | -15.92501 | 38280 ft | 488 kts | 111° |
| 2026-05-08 17:38 | 54.18081 | -15.81649 | 38283 ft | 487 kts | 112° |
| 2026-05-08 17:38 | 54.15716 | -15.70815 | 38286 ft | 487 kts | 111° |
| 2026-05-08 17:39 | 54.13347 | -15.59999 | 38279 ft | 487 kts | 112° |
| 2026-05-08 17:39 | 54.10958 | -15.49118 | 38277 ft | 487 kts | 112° |
| 2026-05-08 17:40 | 54.08569 | -15.38339 | 38278 ft | 486 kts | 112° |
| 2026-05-08 17:40 | 54.06174 | -15.27571 | 38273 ft | 486 kts | 112° |
| 2026-05-08 17:41 | 54.03782 | -15.16822 | 38266 ft | 486 kts | 113° |
| 2026-05-08 17:41 | 54.01369 | -15.06092 | 38270 ft | 485 kts | 112° |
| 2026-05-08 17:42 | 54.00030 | -14.94837 | 38266 ft | 489 kts | 93° |
| 2026-05-08 17:42 | 54.00066 | -14.83269 | 38255 ft | 490 kts | 91° |
| 2026-05-08 17:43 | 54.00098 | -14.71696 | 38255 ft | 490 kts | 91° |
| 2026-05-08 17:43 | 54.00094 | -14.60110 | 38256 ft | 490 kts | 91° |
| 2026-05-08 17:44 | 54.00086 | -14.48527 | 38255 ft | 490 kts | 91° |
| 2026-05-08 17:44 | 54.00086 | -14.36938 | 38251 ft | 490 kts | 91° |
| 2026-05-08 17:45 | 54.00072 | -14.25342 | 38235 ft | 491 kts | 92° |
| 2026-05-08 17:45 | 54.00040 | -14.13656 | 38238 ft | 491 kts | 92° |
| 2026-05-08 17:46 | 53.99744 | -14.02010 | 38232 ft | 489 kts | 101° |
| 2026-05-08 17:46 | 53.98999 | -13.96479 | 37691 ft | 484 kts | 111° |
| 2026-05-08 17:46 | 53.97737 | -13.91140 | 37311 ft | 480 kts | 118° |
| 2026-05-08 17:47 | 53.95013 | -13.80726 | 37223 ft | 484 kts | 117° |
| 2026-05-08 17:47 | 53.92794 | -13.72022 | 37240 ft | 484 kts | 117° |
| 2026-05-08 17:48 | 53.89662 | -13.59791 | 37242 ft | 483 kts | 118° |
| 2026-05-08 17:48 | 53.86957 | -13.49360 | 37231 ft | 483 kts | 118° |
| 2026-05-08 17:49 | 53.84239 | -13.38948 | 37231 ft | 483 kts | 118° |
| 2026-05-08 17:49 | 53.81508 | -13.28548 | 37218 ft | 483 kts | 118° |
| 2026-05-08 17:50 | 53.78773 | -13.18181 | 37221 ft | 483 kts | 118° |
| 2026-05-08 17:50 | 53.76031 | -13.07813 | 37203 ft | 482 kts | 119° |
| 2026-05-08 17:51 | 53.73284 | -12.97472 | 37210 ft | 482 kts | 119° |
| 2026-05-08 17:51 | 53.70532 | -12.87175 | 37213 ft | 481 kts | 119° |
| 2026-05-08 17:52 | 53.67777 | -12.76880 | 37211 ft | 481 kts | 119° |
| 2026-05-08 17:53 | 53.63605 | -12.61424 | 37201 ft | 481 kts | 119° |
| 2026-05-08 17:53 | 53.60827 | -12.51194 | 37184 ft | 481 kts | 120° |
| 2026-05-08 17:54 | 53.58042 | -12.40969 | 37168 ft | 480 kts | 120° |
| 2026-05-08 17:54 | 53.55247 | -12.30760 | 37180 ft | 480 kts | 120° |
| 2026-05-08 17:55 | 53.52448 | -12.20572 | 37185 ft | 480 kts | 120° |
| 2026-05-08 17:55 | 53.49636 | -12.10403 | 37182 ft | 480 kts | 120° |
| 2026-05-08 17:56 | 53.46821 | -12.00266 | 37177 ft | 479 kts | 120° |
| 2026-05-08 17:56 | 53.43999 | -11.90128 | 37168 ft | 479 kts | 120° |
| 2026-05-08 17:57 | 53.41173 | -11.80005 | 37163 ft | 480 kts | 120° |
| 2026-05-08 17:57 | 53.38333 | -11.69897 | 37159 ft | 479 kts | 120° |
| 2026-05-08 17:58 | 53.35485 | -11.59812 | 37159 ft | 479 kts | 120° |
| 2026-05-08 17:58 | 53.32629 | -11.49741 | 37162 ft | 479 kts | 120° |
| 2026-05-08 17:59 | 53.29770 | -11.39695 | 37160 ft | 478 kts | 120° |
| 2026-05-08 17:59 | 53.26903 | -11.29664 | 37145 ft | 478 kts | 121° |
| 2026-05-08 18:00 | 53.24492 | -11.21276 | 37151 ft | 478 kts | 121° |
| 2026-05-08 18:00 | 53.19672 | -11.04585 | 37025 ft | 476 kts | 121° |
| 2026-05-08 18:01 | 53.18244 | -10.99628 | 36760 ft | 472 kts | 121° |
| 2026-05-08 18:01 | 53.16823 | -10.94715 | 36126 ft | 471 kts | 122° |
| 2026-05-08 18:01 | 53.15384 | -10.89769 | 35089 ft | 476 kts | 123° |
| 2026-05-08 18:01 | 53.13938 | -10.84807 | 34338 ft | 474 kts | 123° |
| 2026-05-08 18:02 | 53.12501 | -10.79877 | 33259 ft | 472 kts | 123° |
| 2026-05-08 18:02 | 53.11548 | -10.76617 | 32343 ft | 474 kts | 123° |
| 2026-05-08 18:02 | 53.09612 | -10.70020 | 30465 ft | 475 kts | 122° |
| 2026-05-08 18:02 | 53.08167 | -10.65103 | 29083 ft | 470 kts | 122° |
| 2026-05-08 18:03 | 53.06739 | -10.60247 | 27720 ft | 465 kts | 121° |
| 2026-05-08 18:03 | 53.05328 | -10.55456 | 26446 ft | 457 kts | 121° |
| 2026-05-08 18:03 | 53.03938 | -10.50750 | 25245 ft | 451 kts | 121° |
| 2026-05-08 18:03 | 53.02552 | -10.46077 | 24102 ft | 449 kts | 120° |
| 2026-05-08 18:04 | 53.01183 | -10.41475 | 22860 ft | 442 kts | 120° |
| 2026-05-08 18:04 | 53.00286 | -10.38460 | 22019 ft | 437 kts | 120° |
| 2026-05-08 18:04 | 52.98935 | -10.33928 | 20784 ft | 429 kts | 119° |
| 2026-05-08 18:04 | 52.97624 | -10.29539 | 19643 ft | 420 kts | 118° |
| 2026-05-08 18:05 | 52.96333 | -10.25225 | 18566 ft | 414 kts | 118° |
| 2026-05-08 18:05 | 52.95059 | -10.20978 | 17432 ft | 410 kts | 119° |
| 2026-05-08 18:05 | 52.93794 | -10.16777 | 16542 ft | 405 kts | 118° |
| 2026-05-08 18:05 | 52.92541 | -10.12619 | 15708 ft | 401 kts | 118° |
| 2026-05-08 18:06 | 52.91299 | -10.08504 | 14894 ft | 398 kts | 118° |
| 2026-05-08 18:06 | 52.90066 | -10.04420 | 14103 ft | 393 kts | 117° |
| 2026-05-08 18:06 | 52.88851 | -10.00402 | 13279 ft | 388 kts | 118° |
| 2026-05-08 18:06 | 52.87650 | -9.96439 | 12551 ft | 382 kts | 118° |
| 2026-05-08 18:07 | 52.86467 | -9.92539 | 11784 ft | 376 kts | 118° |
| 2026-05-08 18:07 | 52.85307 | -9.88718 | 11299 ft | 365 kts | 117° |
| 2026-05-08 18:07 | 52.84202 | -9.85081 | 11172 ft | 344 kts | 118° |
| 2026-05-08 18:07 | 52.83154 | -9.81645 | 11043 ft | 326 kts | 118° |
| 2026-05-08 18:08 | 52.82158 | -9.78384 | 10919 ft | 310 kts | 118° |
| 2026-05-08 18:08 | 52.81207 | -9.75277 | 10762 ft | 298 kts | 117° |
| 2026-05-08 18:08 | 52.80176 | -9.72365 | 10512 ft | 290 kts | 126° |
| 2026-05-08 18:08 | 52.78947 | -9.69754 | 10256 ft | 287 kts | 129° |
| 2026-05-08 18:09 | 52.77709 | -9.67182 | 10038 ft | 285 kts | 128° |
| 2026-05-08 18:09 | 52.76481 | -9.64623 | 9909 ft | 285 kts | 128° |
| 2026-05-08 18:09 | 52.75253 | -9.62064 | 9767 ft | 284 kts | 128° |
| 2026-05-08 18:09 | 52.74026 | -9.59514 | 9633 ft | 283 kts | 128° |
| 2026-05-08 18:10 | 52.72795 | -9.56963 | 9496 ft | 281 kts | 129° |
| 2026-05-08 18:10 | 52.71582 | -9.54447 | 9135 ft | 284 kts | 128° |
| 2026-05-08 18:10 | 52.70358 | -9.51907 | 8701 ft | 280 kts | 128° |
| 2026-05-08 18:10 | 52.69144 | -9.49387 | 8076 ft | 278 kts | 128° |
| 2026-05-08 18:11 | 52.67951 | -9.46916 | 7403 ft | 273 kts | 128° |
| 2026-05-08 18:11 | 52.66755 | -9.44446 | 6692 ft | 271 kts | 128° |
| 2026-05-08 18:11 | 52.65589 | -9.42044 | 6026 ft | 266 kts | 127° |
| 2026-05-08 18:11 | 52.64437 | -9.39674 | 5387 ft | 263 kts | 127° |
| 2026-05-08 18:12 | 52.63308 | -9.37352 | 4849 ft | 255 kts | 126° |
| 2026-05-08 18:12 | 52.62244 | -9.35169 | 4781 ft | 236 kts | 127° |
| 2026-05-08 18:12 | 52.61246 | -9.33131 | 4732 ft | 221 kts | 125° |
| 2026-05-08 18:12 | 52.60316 | -9.31230 | 4676 ft | 207 kts | 125° |
| 2026-05-08 18:13 | 52.59438 | -9.29430 | 4601 ft | 196 kts | 124° |
| 2026-05-08 18:13 | 52.58606 | -9.27725 | 4520 ft | 187 kts | 125° |
| 2026-05-08 18:13 | 52.57812 | -9.26099 | 4452 ft | 178 kts | 124° |
| 2026-05-08 18:13 | 52.57041 | -9.24495 | 4382 ft | 182 kts | 122° |
| 2026-05-08 18:14 | 52.56627 | -9.22575 | 4223 ft | 179 kts | 91° |
| 2026-05-08 18:14 | 52.56899 | -9.20625 | 4038 ft | 176 kts | 61° |
| 2026-05-08 18:14 | 52.57627 | -9.19017 | 3829 ft | 174 kts | 51° |
| 2026-05-08 18:14 | 52.58381 | -9.17445 | 3608 ft | 176 kts | 51° |
| 2026-05-08 18:15 | 52.59137 | -9.15858 | 3365 ft | 176 kts | 51° |
| 2026-05-08 18:15 | 52.59887 | -9.14280 | 3124 ft | 174 kts | 52° |
| 2026-05-08 18:15 | 52.60627 | -9.12720 | 2893 ft | 172 kts | 52° |
| 2026-05-08 18:15 | 52.61359 | -9.11178 | 2657 ft | 171 kts | 51° |
| 2026-05-08 18:16 | 52.62086 | -9.09646 | 2422 ft | 169 kts | 51° |
| 2026-05-08 18:16 | 52.62810 | -9.08119 | 2192 ft | 169 kts | 51° |
| 2026-05-08 18:16 | 52.63535 | -9.06590 | 1960 ft | 169 kts | 51° |
| 2026-05-08 18:16 | 52.64259 | -9.05059 | 1735 ft | 170 kts | 51° |
| 2026-05-08 18:17 | 52.64977 | -9.03543 | 1498 ft | 163 kts | 51° |
| 2026-05-08 18:17 | 52.65644 | -9.02131 | 1283 ft | 149 kts | 51° |
| 2026-05-08 18:17 | 52.66267 | -9.00813 | 1083 ft | 139 kts | 51° |
| 2026-05-08 18:17 | 52.66843 | -8.99595 | 881 ft | 129 kts | 49° |
| 2026-05-08 18:18 | 52.67374 | -8.98469 | 705 ft | 121 kts | 48° |
| 2026-05-08 18:18 | 52.67885 | -8.97387 | 557 ft | 120 kts | 49° |
| 2026-05-08 18:18 | 52.68391 | -8.96314 | 404 ft | 117 kts | 46° |
| 2026-05-08 18:18 | 52.68891 | -8.95255 | 242 ft | 120 kts | 48° |
| 2026-05-08 18:19 | 52.69399 | -8.94180 | 92 ft | 118 kts | 47° |
| 2026-05-08 18:19 | 52.69886 | -8.93153 | 26 ft | 101 kts | 50° |
| 2026-05-08 18:19 | 52.70224 | -8.92423 | 17 ft | 56 kts | 53° |
| 2026-05-08 18:19 | 52.70356 | -8.92143 | 16 ft | 11 kts | 52° |
| 2026-05-08 18:20 | 52.70423 | -8.92005 | 15 ft | 22 kts | 51° |
| 2026-05-08 18:20 | 52.70526 | -8.91789 | 11 ft | 26 kts | 52° |
| 2026-05-08 18:20 | 52.70640 | -8.91547 | 8 ft | 28 kts | 52° |
| 2026-05-08 18:20 | 52.70746 | -8.91320 | 8 ft | 17 kts | 53° |
| 2026-05-08 18:21 | 52.70740 | -8.91172 | 8 ft | 14 kts | 158° |
| 2026-05-08 18:21 | 52.70638 | -8.91143 | 9 ft | 15 kts | 170° |
| 2026-05-08 18:21 | 52.70537 | -8.91111 | 10 ft | 15 kts | 168° |
| 2026-05-08 18:21 | 52.70437 | -8.91079 | 11 ft | 14 kts | 169° |
| 2026-05-08 18:22 | 52.70362 | -8.91057 | 10 ft | 11 kts | 170° |
| 2026-05-08 18:22 | 52.70282 | -8.91033 | 11 ft | 12 kts | 168° |
| 2026-05-08 18:22 | 52.70192 | -8.91011 | 11 ft | 14 kts | 186° |
| 2026-05-08 18:22 | 52.70099 | -8.91063 | 14 ft | 15 kts | 199° |
| 2026-05-08 18:23 | 52.69999 | -8.91117 | 15 ft | 16 kts | 198° |
| 2026-05-08 18:23 | 52.69897 | -8.91174 | 14 ft | 15 kts | 199° |
| 2026-05-08 18:23 | 52.69805 | -8.91226 | 16 ft | 14 kts | 199° |
| 2026-05-08 18:23 | 52.69707 | -8.91281 | 16 ft | 15 kts | 199° |
| 2026-05-08 18:24 | 52.69601 | -8.91340 | 17 ft | 17 kts | 198° |
| 2026-05-08 18:24 | 52.69489 | -8.91402 | 18 ft | 18 kts | 198° |
| 2026-05-08 18:24 | 52.69370 | -8.91466 | 21 ft | 17 kts | 198° |
| 2026-05-08 18:24 | 52.69278 | -8.91518 | 21 ft | 13 kts | 200° |
| 2026-05-08 18:25 | 52.69271 | -8.91635 | 20 ft | 13 kts | 309° |
| 2026-05-08 18:25 | 52.69341 | -8.91747 | 20 ft | 15 kts | 341° |
| 2026-05-08 18:25 | 52.69413 | -8.91794 | 20 ft | 11 kts | 314° |
| 2026-05-08 18:25 | 52.69446 | -8.91914 | 20 ft | 10 kts | 286° |
| 2026-05-08 18:26 | 52.69405 | -8.91953 | 21 ft | 8 kts | 185° |
| 2026-05-08 18:26 | 52.69365 | -8.91959 | 23 ft | 3 kts | 185° |
| 2026-05-08 18:26 | 52.69362 | -8.91959 | 23 ft | 0 kts | 185° |